Time;durP1;ratioP1;P1;durP2;ratioP2;P2;SDS_P1;SDS_P2;PMS_P1;PMS_P2;Temp;Humidity;BMP_temperature;BMP_pressure;BME280_temperature;BME280_humidity;BME280_pressure;Samples;Min_cycle;Max_cycle;Signal;HPM_P1;HPM_P2
2024/03/30 00:00:43;;;;;;;0.60;0.53;;;16.80;99.90;;;;;;5067496;28;20468;-74
2024/03/30 00:03:08;;;;;;;0.40;0.33;;;16.80;99.90;;;;;;5066262;28;20442;-73
2024/03/30 00:05:34;;;;;;;0.33;0.27;;;16.70;99.90;;;;;;5066514;28;20214;-73
2024/03/30 00:07:59;;;;;;;1.27;1.20;;;16.70;99.90;;;;;;5067730;28;20199;-74
2024/03/30 00:10:25;;;;;;;0.40;0.40;;;16.70;99.90;;;;;;5066291;28;20179;-73
2024/03/30 00:12:54;;;;;;;0.40;0.30;;;16.70;99.90;;;;;;5066235;28;20216;-74
2024/03/30 00:15:19;;;;;;;1.27;1.27;;;16.70;99.90;;;;;;5067279;28;20220;-73
2024/03/30 00:17:45;;;;;;;0.43;0.43;;;16.70;99.90;;;;;;5066254;28;20429;-74
2024/03/30 00:20:10;;;;;;;3.03;2.73;;;16.60;99.90;;;;;;5066964;28;20192;-74
2024/03/30 00:22:36;;;;;;;0.40;0.40;;;16.60;99.90;;;;;;5067211;28;20688;-74
2024/03/30 00:25:02;;;;;;;0.60;0.60;;;16.60;99.90;;;;;;5066963;28;20567;-73
2024/03/30 00:27:28;;;;;;;0.97;0.90;;;16.60;99.90;;;;;;5065464;28;20211;-74
2024/03/30 00:29:54;;;;;;;0.37;0.30;;;16.60;99.90;;;;;;5066977;28;20196;-73
2024/03/30 00:32:22;;;;;;;0.30;0.20;;;16.60;99.90;;;;;;5066773;28;20472;-73
2024/03/30 00:34:47;;;;;;;0.30;0.20;;;16.50;99.90;;;;;;5065653;28;20381;-73
2024/03/30 00:37:13;;;;;;;0.50;0.50;;;16.50;99.90;;;;;;5065220;28;20945;-73
2024/03/30 00:39:39;;;;;;;0.30;0.20;;;16.40;99.90;;;;;;5067182;28;20277;-73
2024/03/30 00:42:04;;;;;;;1.07;1.07;;;16.40;99.90;;;;;;5065218;28;20181;-73
2024/03/30 00:44:32;;;;;;;0.83;0.73;;;16.30;99.90;;;;;;5065362;28;20330;-73
2024/03/30 00:46:58;;;;;;;0.30;0.20;;;16.30;99.90;;;;;;5066490;28;20355;-73
2024/03/30 00:49:23;;;;;;;0.63;0.63;;;16.20;99.90;;;;;;5066604;28;20440;-73
2024/03/30 00:51:49;;;;;;;0.30;0.20;;;16.20;99.90;;;;;;5066440;28;20268;-74
2024/03/30 00:54:14;;;;;;;0.63;0.63;;;16.20;99.90;;;;;;5065367;28;20200;-73
2024/03/30 00:56:40;;;;;;;0.40;0.33;;;16.20;99.90;;;;;;5066141;28;20486;-73
2024/03/30 00:59:05;;;;;;;1.70;0.70;;;16.20;99.90;;;;;;5066557;28;20201;-73
2024/03/30 01:01:31;;;;;;;0.60;0.60;;;16.20;99.90;;;;;;5065725;28;20178;-74
2024/03/30 01:03:57;;;;;;;0.30;0.30;;;16.10;99.90;;;;;;5064767;28;20537;-73
2024/03/30 01:06:24;;;;;;;0.83;0.60;;;16.20;99.90;;;;;;5066372;28;20177;-74
2024/03/30 01:08:50;;;;;;;0.30;0.30;;;16.20;99.90;;;;;;5066153;28;20189;-73
2024/03/30 01:11:16;;;;;;;1.23;0.80;;;16.20;99.90;;;;;;5066331;28;20406;-74
2024/03/30 01:13:42;;;;;;;0.50;0.40;;;16.20;99.90;;;;;;5065841;28;20437;-73
2024/03/30 01:16:11;;;;;;;0.30;0.20;;;16.20;99.90;;;;;;5066142;28;20222;-73
2024/03/30 01:18:37;;;;;;;0.30;0.30;;;16.20;99.90;;;;;;5063623;28;20438;-73
2024/03/30 01:21:03;;;;;;;0.40;0.30;;;16.20;99.90;;;;;;5065962;28;21104;-73
2024/03/30 01:23:29;;;;;;;1.23;0.50;;;16.20;99.90;;;;;;5065973;28;20477;-73
2024/03/30 01:25:59;;;;;;;0.30;0.20;;;16.20;99.90;;;;;;5064639;28;20945;-73
2024/03/30 01:28:25;;;;;;;0.30;0.20;;;16.20;99.90;;;;;;5064303;28;20533;-74
2024/03/30 01:30:51;;;;;;;0.37;0.33;;;16.20;99.90;;;;;;5066113;28;20489;-73
2024/03/30 01:33:17;;;;;;;0.40;0.40;;;16.10;99.90;;;;;;5064224;28;20838;-74
2024/03/30 01:35:43;;;;;;;0.60;0.60;;;16.10;99.90;;;;;;5065925;28;20461;-73
2024/03/30 01:38:09;;;;;;;4.53;1.40;;;16.10;99.90;;;;;;5065578;28;20433;-73
2024/03/30 01:40:35;;;;;;;0.30;0.20;;;16.00;99.90;;;;;;5064362;28;20437;-73
2024/03/30 01:43:03;;;;;;;0.83;0.83;;;16.00;99.90;;;;;;5064165;28;20854;-73
2024/03/30 01:45:34;;;;;;;0.87;0.87;;;16.00;99.90;;;;;;5065943;28;20421;-72
2024/03/30 01:48:06;;;;;;;0.30;0.20;;;16.00;99.90;;;;;;5065208;28;20843;-73
2024/03/30 01:50:33;;;;;;;0.50;0.50;;;15.90;99.90;;;;;;5065949;28;21090;-72
2024/03/30 01:53:02;;;;;;;0.50;0.47;;;15.90;99.90;;;;;;5065683;28;20789;-73
2024/03/30 01:55:28;;;;;;;0.80;0.53;;;15.80;99.90;;;;;;5065637;28;20477;-74
2024/03/30 01:57:56;;;;;;;1.53;1.47;;;15.70;99.90;;;;;;5065533;28;20994;-74
2024/03/30 02:00:22;;;;;;;0.60;0.60;;;15.80;99.90;;;;;;5065526;28;20406;-73
2024/03/30 02:02:52;;;;;;;0.53;0.53;;;15.80;99.90;;;;;;5063894;28;20849;-72
2024/03/30 02:05:21;;;;;;;0.40;0.40;;;15.70;99.90;;;;;;5065662;28;20185;-73
2024/03/30 02:07:47;;;;;;;0.60;0.60;;;15.70;99.90;;;;;;5065333;28;20430;-73
2024/03/30 02:10:13;;;;;;;1.10;0.70;;;15.70;99.90;;;;;;5065530;28;20465;-73
2024/03/30 02:12:40;;;;;;;0.40;0.37;;;15.70;99.90;;;;;;5064989;28;20426;-73
2024/03/30 02:15:07;;;;;;;1.33;1.33;;;15.70;99.90;;;;;;5065192;28;20938;-73
2024/03/30 02:17:32;;;;;;;0.30;0.20;;;15.70;99.90;;;;;;5063647;28;21018;-73
2024/03/30 02:19:58;;;;;;;0.30;0.20;;;15.70;99.90;;;;;;5063024;28;20504;-73
2024/03/30 02:22:24;;;;;;;0.30;0.20;;;15.60;99.90;;;;;;5065239;28;20682;-73
2024/03/30 02:24:50;;;;;;;0.30;0.20;;;15.60;99.90;;;;;;5064062;28;20181;-73
2024/03/30 02:27:16;;;;;;;0.40;0.30;;;15.60;99.90;;;;;;5063935;28;20181;-73
2024/03/30 02:29:45;;;;;;;0.30;0.20;;;15.70;99.90;;;;;;5065570;28;20428;-73
2024/03/30 02:32:10;;;;;;;0.47;0.47;;;15.70;99.90;;;;;;5063630;28;20184;-73
2024/03/30 02:34:37;;;;;;;0.70;0.70;;;15.70;99.90;;;;;;5064187;28;20416;-74
2024/03/30 02:37:04;;;;;;;0.30;0.20;;;15.80;99.90;;;;;;5064563;28;20246;-72
2024/03/30 02:39:29;;;;;;;0.60;0.60;;;15.80;99.90;;;;;;5065207;28;20950;-73
2024/03/30 02:41:55;;;;;;;2.60;0.93;;;15.70;99.90;;;;;;5065131;28;20434;-73
2024/03/30 02:44:21;;;;;;;0.70;0.63;;;15.70;99.90;;;;;;5064923;28;20188;-73
2024/03/30 02:46:47;;;;;;;0.30;0.20;;;15.70;99.90;;;;;;5064587;28;20576;-73
2024/03/30 02:49:14;;;;;;;0.63;0.63;;;15.70;99.90;;;;;;5065126;28;20556;-73
2024/03/30 02:51:39;;;;;;;0.83;0.63;;;15.60;99.90;;;;;;5065193;28;20454;-73
2024/03/30 02:54:05;;;;;;;0.87;0.83;;;15.70;99.90;;;;;;5063438;28;20540;-73
2024/03/30 02:56:32;;;;;;;0.30;0.30;;;15.60;99.90;;;;;;5063474;28;20429;-73
2024/03/30 02:58:58;;;;;;;0.70;0.70;;;15.60;99.90;;;;;;5064704;28;20203;-72
2024/03/30 03:01:24;;;;;;;0.30;0.30;;;15.60;99.90;;;;;;5065182;28;20412;-73
2024/03/30 03:03:50;;;;;;;0.87;0.87;;;15.70;99.90;;;;;;5064783;28;20425;-73
2024/03/30 03:06:15;;;;;;;0.30;0.20;;;15.70;99.90;;;;;;5064785;28;20549;-72
2024/03/30 03:08:41;;;;;;;1.33;1.27;;;15.80;99.90;;;;;;5064822;28;20193;-74
2024/03/30 03:11:07;;;;;;;5.33;1.80;;;15.80;99.90;;;;;;5064552;28;20220;-73
2024/03/30 03:13:32;;;;;;;0.37;0.37;;;15.80;99.90;;;;;;5064459;28;20528;-73
2024/03/30 03:16:06;;;;;;;0.40;0.30;;;15.80;99.90;;;;;;5064537;28;20448;-74
2024/03/30 03:18:32;;;;;;;0.30;0.20;;;15.70;99.90;;;;;;5065006;28;20457;-73
2024/03/30 03:20:58;;;;;;;0.57;0.57;;;15.80;99.90;;;;;;5062699;28;20414;-74
2024/03/30 03:23:25;;;;;;;0.30;0.30;;;15.80;99.90;;;;;;5062809;28;20431;-73
2024/03/30 03:25:51;;;;;;;0.50;0.43;;;15.70;99.90;;;;;;5065670;28;20824;-73
2024/03/30 03:28:17;;;;;;;0.40;0.40;;;15.70;99.90;;;;;;5066927;28;20438;-73
2024/03/30 03:30:43;;;;;;;0.30;0.20;;;15.80;99.90;;;;;;5066980;28;20795;-74
2024/03/30 03:33:08;;;;;;;0.30;0.20;;;15.70;99.90;;;;;;5068084;28;20193;-73
2024/03/30 03:35:34;;;;;;;0.60;0.57;;;15.80;99.90;;;;;;5068469;28;20230;-73
2024/03/30 03:38:00;;;;;;;0.40;0.40;;;15.70;99.90;;;;;;5067726;28;20189;-73
2024/03/30 03:40:25;;;;;;;0.30;0.20;;;15.70;99.90;;;;;;5066942;28;20181;-73
2024/03/30 03:42:51;;;;;;;0.30;0.30;;;15.70;99.90;;;;;;5066488;28;20521;-73
2024/03/30 03:45:17;;;;;;;1.60;0.97;;;15.70;99.90;;;;;;5066431;28;20658;-73
2024/03/30 03:47:42;;;;;;;0.50;0.50;;;15.70;99.90;;;;;;5067646;28;20242;-73
2024/03/30 03:50:08;;;;;;;0.37;0.37;;;15.70;99.90;;;;;;5068019;28;20242;-72
2024/03/30 03:52:34;;;;;;;0.30;0.30;;;15.60;99.90;;;;;;5067792;28;20197;-73
2024/03/30 03:54:59;;;;;;;0.40;0.33;;;15.60;99.90;;;;;;5066216;28;20322;-73
2024/03/30 03:57:25;;;;;;;0.30;0.20;;;15.60;99.90;;;;;;5065861;28;20584;-73
2024/03/30 03:59:51;;;;;;;0.30;0.30;;;15.50;99.90;;;;;;5067849;28;20195;-72
2024/03/30 04:02:16;;;;;;;1.07;0.67;;;15.50;99.90;;;;;;5065982;28;20243;-73
2024/03/30 04:04:42;;;;;;;0.30;0.20;;;15.50;99.90;;;;;;5066459;28;20430;-73
2024/03/30 04:07:08;;;;;;;0.30;0.20;;;15.50;99.90;;;;;;5066094;28;20196;-73
2024/03/30 04:09:33;;;;;;;0.70;0.40;;;15.40;99.90;;;;;;5067579;28;20184;-73
2024/03/30 04:11:59;;;;;;;0.50;0.50;;;15.40;99.90;;;;;;5067273;28;20490;-73
2024/03/30 04:14:24;;;;;;;7.30;2.30;;;15.40;99.90;;;;;;5067265;28;20425;-73
2024/03/30 04:16:50;;;;;;;0.70;0.70;;;15.40;99.90;;;;;;5067062;28;20259;-74
2024/03/30 04:19:19;;;;;;;1.43;1.33;;;15.30;99.90;;;;;;5067449;28;20705;-73
2024/03/30 04:21:45;;;;;;;1.30;1.30;;;15.30;99.90;;;;;;5065528;28;20181;-73
2024/03/30 04:24:12;;;;;;;0.30;0.30;;;15.30;99.90;;;;;;5066491;28;20446;-73
2024/03/30 04:26:39;;;;;;;0.70;0.60;;;15.30;99.90;;;;;;5065706;28;20588;-74
2024/03/30 04:29:04;;;;;;;1.83;0.93;;;15.30;99.90;;;;;;5067429;28;20727;-73
2024/03/30 04:31:30;;;;;;;2.00;1.90;;;15.20;99.90;;;;;;5067194;28;20418;-73
2024/03/30 04:33:56;;;;;;;2.93;2.83;;;15.20;99.90;;;;;;5065673;28;20792;-73
2024/03/30 04:36:22;;;;;;;0.30;0.30;;;15.20;99.90;;;;;;5066545;28;20304;-73
2024/03/30 04:38:47;;;;;;;0.30;0.20;;;15.10;99.90;;;;;;5066483;28;20200;-73
2024/03/30 04:41:13;;;;;;;0.40;0.40;;;15.10;99.90;;;;;;5066764;28;20173;-73
2024/03/30 04:43:39;;;;;;;0.50;0.50;;;15.10;99.90;;;;;;5065354;28;20193;-73
2024/03/30 04:46:06;;;;;;;0.30;0.20;;;15.00;99.90;;;;;;5065418;28;20539;-73
2024/03/30 04:48:32;;;;;;;0.50;0.47;;;15.00;99.90;;;;;;5064820;28;20707;-73
2024/03/30 04:50:59;;;;;;;0.50;0.50;;;15.00;99.90;;;;;;5066932;28;20410;-73
2024/03/30 04:53:32;;;;;;;0.40;0.33;;;14.90;99.90;;;;;;5066476;28;21021;-73
2024/03/30 04:56:00;;;;;;;0.77;0.70;;;14.90;99.90;;;;;;5065212;28;20489;-74
2024/03/30 04:58:27;;;;;;;0.30;0.30;;;14.90;99.90;;;;;;5066197;28;20429;-73
2024/03/30 05:00:59;;;;;;;1.80;1.13;;;14.90;99.90;;;;;;5065454;28;20425;-73
2024/03/30 05:03:25;;;;;;;1.47;1.37;;;14.90;99.90;;;;;;5066254;28;20549;-74
2024/03/30 05:05:51;;;;;;;0.50;0.50;;;14.80;99.90;;;;;;5066420;28;20767;-74
2024/03/30 05:08:16;;;;;;;0.40;0.40;;;14.80;99.90;;;;;;5064698;28;20422;-73
2024/03/30 05:10:43;;;;;;;1.17;1.17;;;14.80;99.90;;;;;;5066766;28;20181;-72
2024/03/30 05:13:09;;;;;;;1.30;1.27;;;14.80;99.90;;;;;;5066183;28;20201;-73
2024/03/30 05:15:39;;;;;;;1.73;1.37;;;14.70;99.90;;;;;;5066357;28;20609;-74
2024/03/30 05:18:06;;;;;;;0.53;0.50;;;14.70;99.90;;;;;;5066126;28;20828;-73
2024/03/30 05:20:50;;;;;;;4.00;0.57;;;14.60;99.90;;;;;;5064955;28;20541;-73
2024/03/30 05:23:21;;;;;;;0.50;0.50;;;14.60;99.90;;;;;;5064745;28;20656;-73
2024/03/30 05:25:47;;;;;;;9.20;1.73;;;14.50;99.90;;;;;;5065196;28;20406;-72
2024/03/30 05:28:15;;;;;;;0.83;0.83;;;14.40;99.90;;;;;;5066047;28;21090;-73
2024/03/30 05:30:41;;;;;;;1.50;1.40;;;14.30;99.90;;;;;;5066316;28;20643;-72
2024/03/30 05:33:11;;;;;;;0.40;0.40;;;14.20;99.90;;;;;;5064412;28;20429;-73
2024/03/30 05:35:37;;;;;;;2.07;1.90;;;14.20;99.90;;;;;;5066379;28;20942;-72
2024/03/30 05:38:04;;;;;;;0.40;0.30;;;14.00;99.90;;;;;;5065520;28;20468;-74
2024/03/30 05:40:34;;;;;;;0.50;0.50;;;13.90;99.90;;;;;;5065728;28;20410;-73
2024/03/30 05:43:00;;;;;;;0.30;0.27;;;13.90;99.90;;;;;;5064002;28;20515;-73
2024/03/30 05:45:26;;;;;;;0.83;0.83;;;13.90;99.90;;;;;;5064179;28;20465;-73
2024/03/30 05:47:53;;;;;;;0.40;0.40;;;13.90;99.90;;;;;;5064828;28;20446;-72
2024/03/30 05:50:19;;;;;;;0.30;0.20;;;13.90;99.90;;;;;;5065930;28;20464;-73
2024/03/30 05:52:45;;;;;;;0.80;0.70;;;14.00;99.90;;;;;;5065546;28;20430;-73
2024/03/30 05:55:10;;;;;;;0.50;0.43;;;14.00;99.90;;;;;;5065694;28;20581;-72
2024/03/30 05:57:36;;;;;;;0.30;0.30;;;14.00;99.90;;;;;;5065688;28;20208;-73
2024/03/30 06:00:02;;;;;;;0.97;0.93;;;14.00;99.90;;;;;;5065550;28;20227;-73
2024/03/30 06:02:28;;;;;;;0.50;0.50;;;14.00;99.90;;;;;;5063984;28;20538;-74
2024/03/30 06:04:53;;;;;;;0.30;0.30;;;14.00;99.90;;;;;;5065729;28;20510;-73
2024/03/30 06:07:19;;;;;;;0.30;0.27;;;14.00;99.90;;;;;;5063619;28;20212;-73
2024/03/30 06:09:47;;;;;;;1.20;1.13;;;14.10;99.90;;;;;;5064171;28;20670;-72
2024/03/30 06:12:13;;;;;;;0.40;0.40;;;14.20;99.90;;;;;;5065121;28;20181;-73
2024/03/30 06:14:38;;;;;;;0.30;0.20;;;14.30;99.90;;;;;;5065137;28;20774;-73
2024/03/30 06:17:04;;;;;;;3.57;1.53;;;14.40;99.90;;;;;;5064974;28;20213;-74
2024/03/30 06:19:30;;;;;;;0.30;0.30;;;14.50;99.90;;;;;;5063251;28;20513;-73
2024/03/30 06:21:56;;;;;;;0.87;0.80;;;14.50;99.90;;;;;;5063585;28;20184;-73
2024/03/30 06:24:21;;;;;;;0.70;0.70;;;14.60;99.90;;;;;;5063840;28;20204;-73
2024/03/30 06:26:47;;;;;;;1.47;1.37;;;14.70;99.90;;;;;;5062993;28;20647;-74
2024/03/30 06:29:12;;;;;;;1.90;1.80;;;14.80;99.90;;;;;;5061720;28;20207;-74
2024/03/30 06:31:38;;;;;;;0.63;0.63;;;14.80;99.90;;;;;;5063412;28;20188;-74
2024/03/30 06:34:05;;;;;;;0.70;0.70;;;14.90;99.90;;;;;;5063635;28;20189;-73
2024/03/30 06:36:32;;;;;;;1.60;1.50;;;15.10;99.90;;;;;;5063601;28;20542;-73
2024/03/30 06:38:58;;;;;;;0.33;0.30;;;15.30;99.90;;;;;;5063877;28;20436;-73
2024/03/30 06:44:09;;;;;;;0.30;0.20;;;15.60;99.90;;;;;;5065311;28;20441;-73
2024/03/30 06:46:34;;;;;;;0.40;0.40;;;15.70;99.90;;;;;;5064719;28;20418;-73
2024/03/30 06:49:00;;;;;;;0.40;0.40;;;15.90;99.90;;;;;;5065187;28;20533;-73
2024/03/30 06:51:26;;;;;;;0.30;0.20;;;16.10;99.90;;;;;;5063439;28;20247;-73
2024/03/30 06:53:51;;;;;;;0.30;0.27;;;16.20;99.90;;;;;;5064816;28;20201;-73
2024/03/30 06:56:17;;;;;;;0.67;0.67;;;16.40;99.90;;;;;;5063548;28;20266;-73
2024/03/30 06:58:43;;;;;;;0.70;0.70;;;16.60;99.90;;;;;;5064675;28;20716;-73
2024/03/30 07:01:09;;;;;;;1.93;0.77;;;16.80;99.90;;;;;;5066642;28;20581;-74
2024/03/30 07:03:35;;;;;;;1.50;1.40;;;17.00;99.90;;;;;;5068507;28;20255;-73
2024/03/30 07:06:00;;;;;;;2.20;2.10;;;17.10;99.90;;;;;;5068731;28;20921;-73
2024/03/30 07:08:26;;;;;;;0.30;0.20;;;17.30;99.90;;;;;;5068410;28;20415;-73
2024/03/30 07:10:52;;;;;;;0.90;0.67;;;17.50;99.90;;;;;;5068530;28;20620;-73
2024/03/30 07:13:18;;;;;;;0.30;0.30;;;17.70;99.90;;;;;;5066722;28;20435;-74
2024/03/30 07:15:43;;;;;;;0.30;0.20;;;17.80;99.90;;;;;;5067272;28;20216;-73
2024/03/30 07:18:11;;;;;;;0.40;0.40;;;18.00;99.90;;;;;;5067211;28;20240;-73
2024/03/30 07:20:37;;;;;;;0.40;0.20;;;18.20;99.90;;;;;;5068322;28;20169;-73
2024/03/30 07:23:03;;;;;;;0.63;0.63;;;18.40;99.90;;;;;;5067166;28;20452;-73
2024/03/30 07:25:28;;;;;;;0.40;0.33;;;18.60;99.90;;;;;;5068702;28;20190;-73
2024/03/30 07:27:54;;;;;;;0.50;0.50;;;18.90;99.90;;;;;;5066743;28;20588;-73
2024/03/30 07:30:20;;;;;;;0.40;0.40;;;19.10;99.90;;;;;;5067816;28;20247;-74
2024/03/30 07:32:45;;;;;;;0.63;0.63;;;19.30;99.90;;;;;;5067567;28;20713;-74
2024/03/30 07:35:11;;;;;;;0.50;0.50;;;19.40;99.90;;;;;;5066784;28;20185;-74
2024/03/30 07:37:37;;;;;;;0.30;0.20;;;19.60;99.90;;;;;;5067958;28;20197;-73
2024/03/30 07:40:03;;;;;;;5.13;1.23;;;19.80;99.90;;;;;;5066629;28;20892;-74
2024/03/30 07:42:29;;;;;;;1.03;1.03;;;20.00;99.90;;;;;;5067704;28;20843;-74
2024/03/30 07:44:55;;;;;;;0.30;0.30;;;20.10;99.90;;;;;;5068271;28;20410;-74
2024/03/30 07:47:21;;;;;;;0.67;0.57;;;20.30;99.90;;;;;;5066307;28;20440;-73
2024/03/30 07:49:47;;;;;;;0.40;0.40;;;20.50;99.90;;;;;;5067976;28;20199;-74
2024/03/30 07:52:12;;;;;;;0.30;0.20;;;20.60;99.90;;;;;;5066207;28;20482;-74
2024/03/30 07:54:38;;;;;;;0.37;0.30;;;20.80;99.90;;;;;;5067970;28;20941;-73
2024/03/30 07:57:04;;;;;;;0.93;0.50;;;21.00;99.90;;;;;;5067228;28;20241;-73
2024/03/30 07:59:30;;;;;;;0.43;0.40;;;21.20;99.90;;;;;;5066320;28;20840;-73
2024/03/30 08:01:55;;;;;;;0.40;0.40;;;21.30;99.90;;;;;;5066269;28;20450;-73
2024/03/30 08:04:21;;;;;;;1.57;1.37;;;21.50;99.90;;;;;;5067710;28;20712;-74
2024/03/30 08:06:49;;;;;;;1.00;1.00;;;21.60;99.90;;;;;;5067282;28;20188;-73
2024/03/30 08:09:18;;;;;;;0.40;0.40;;;21.80;99.90;;;;;;5066416;28;20218;-74
2024/03/30 08:11:44;;;;;;;0.30;0.20;;;22.00;99.90;;;;;;5065239;28;20775;-74
2024/03/30 08:14:10;;;;;;;0.30;0.30;;;22.10;99.90;;;;;;5067714;28;20443;-73
2024/03/30 08:16:36;;;;;;;0.30;0.30;;;22.40;99.90;;;;;;5067300;28;20255;-74
2024/03/30 08:19:04;;;;;;;0.40;0.30;;;22.60;99.90;;;;;;5067351;28;20436;-73
2024/03/30 08:21:30;;;;;;;0.57;0.50;;;22.70;99.90;;;;;;5067317;28;20531;-75
2024/03/30 08:23:56;;;;;;;1.63;1.53;;;22.80;99.60;;;;;;5067215;28;20946;-73
2024/03/30 08:26:22;;;;;;;0.30;0.20;;;22.80;98.50;;;;;;5067679;28;20496;-74
2024/03/30 08:28:48;;;;;;;0.30;0.30;;;22.90;98.70;;;;;;5065375;28;20204;-74
2024/03/30 08:31:14;;;;;;;0.77;0.77;;;23.00;98.60;;;;;;5066171;28;20203;-75
2024/03/30 08:33:40;;;;;;;0.40;0.30;;;23.30;98.30;;;;;;5065483;28;20453;-75
2024/03/30 08:36:06;;;;;;;0.30;0.20;;;23.70;97.90;;;;;;5065854;28;20468;-75
2024/03/30 08:38:32;;;;;;;0.50;0.50;;;24.40;97.30;;;;;;5066706;28;20661;-74
2024/03/30 08:40:58;;;;;;;0.90;0.90;;;25.20;95.10;;;;;;5066793;28;20181;-75
2024/03/30 08:43:25;;;;;;;0.30;0.20;;;26.20;93.60;;;;;;5066533;28;20436;-75
2024/03/30 08:45:51;;;;;;;0.40;0.40;;;27.00;91.90;;;;;;5065663;28;20670;-75
2024/03/30 08:48:18;;;;;;;10.60;0.70;;;27.80;90.90;;;;;;5065324;28;20857;-75
2024/03/30 08:50:44;;;;;;;0.60;0.60;;;28.60;87.20;;;;;;5065173;28;20932;-75
2024/03/30 08:53:10;;;;;;;3.13;0.83;;;29.20;84.10;;;;;;5066753;28;20433;-75
2024/03/30 08:55:36;;;;;;;0.30;0.27;;;29.60;80.10;;;;;;5066046;28;20246;-75
2024/03/30 08:58:03;;;;;;;0.57;0.37;;;29.90;80.00;;;;;;5066524;28;20926;-74
2024/03/30 09:00:29;;;;;;;1.23;0.50;;;30.00;79.00;;;;;;5066845;28;20506;-76
2024/03/30 09:02:54;;;;;;;0.50;0.50;;;30.00;77.30;;;;;;5064885;28;20465;-75
2024/03/30 09:05:26;;;;;;;9.10;1.03;;;30.00;76.80;;;;;;5065136;28;20177;-74
2024/03/30 09:07:52;;;;;;;0.83;0.50;;;29.80;75.00;;;;;;5066016;28;20199;-75
2024/03/30 09:10:19;;;;;;;0.30;0.20;;;29.30;74.70;;;;;;5065140;28;20515;-74
2024/03/30 09:12:44;;;;;;;0.73;0.50;;;28.70;75.20;;;;;;5064575;28;20890;-74
2024/03/30 09:15:10;;;;;;;0.30;0.30;;;28.70;75.80;;;;;;5066436;28;20513;-74
2024/03/30 09:17:36;;;;;;;0.83;0.83;;;28.80;75.80;;;;;;5065112;28;20436;-75
2024/03/30 09:20:03;;;;;;;0.30;0.27;;;29.00;75.00;;;;;;5064305;28;20208;-74
2024/03/30 09:22:28;;;;;;;0.30;0.20;;;29.30;73.40;;;;;;5065244;28;20954;-75
2024/03/30 09:24:55;;;;;;;0.50;0.50;;;29.50;73.60;;;;;;5064833;28;20547;-74
2024/03/30 09:27:23;;;;;;;0.30;0.20;;;29.90;73.00;;;;;;5064376;28;20208;-76
2024/03/30 09:29:48;;;;;;;0.30;0.20;;;30.40;73.00;;;;;;5065052;28;20577;-74
2024/03/30 09:32:14;;;;;;;0.30;0.20;;;30.70;71.50;;;;;;5065587;28;20489;-74
2024/03/30 09:34:39;;;;;;;0.40;0.40;;;30.40;70.60;;;;;;5064710;28;20200;-75
2024/03/30 09:37:08;;;;;;;0.53;0.50;;;29.60;70.00;;;;;;5065696;28;20693;-73
2024/03/30 09:39:39;;;;;;;0.60;0.50;;;28.90;70.60;;;;;;5064265;28;20187;-74
2024/03/30 09:42:07;;;;;;;4.93;0.57;;;28.50;71.30;;;;;;5064040;28;20412;-74
2024/03/30 09:44:36;;;;;;;0.30;0.20;;;28.50;72.20;;;;;;5065978;28;20428;-74
2024/03/30 09:47:03;;;;;;;0.30;0.20;;;28.80;71.90;;;;;;5065323;28;20832;-74
2024/03/30 09:49:32;;;;;;;0.30;0.20;;;28.70;71.70;;;;;;5065660;28;20468;-75
2024/03/30 09:52:02;;;;;;;0.30;0.23;;;28.60;71.30;;;;;;5063819;28;20806;-75
2024/03/30 09:54:29;;;;;;;0.37;0.30;;;28.70;72.00;;;;;;5065510;28;20977;-74
2024/03/30 09:56:55;;;;;;;0.30;0.20;;;28.60;71.00;;;;;;5065248;28;20518;-74
2024/03/30 09:59:21;;;;;;;0.40;0.40;;;28.40;70.60;;;;;;5065400;28;20874;-74
2024/03/30 10:01:47;;;;;;;0.30;0.30;;;28.40;71.20;;;;;;5064242;28;20405;-74
2024/03/30 10:04:12;;;;;;;3.80;1.07;;;28.30;70.40;;;;;;5064368;28;20664;-74
2024/03/30 10:06:59;;;;;;;0.47;0.40;;;28.10;71.00;;;;;;5064052;28;20302;-75
2024/03/30 10:09:27;;;;;;;0.50;0.43;;;28.00;70.70;;;;;;5064097;28;20558;-75
2024/03/30 10:12:08;;;;;;;0.30;0.30;;;27.80;71.90;;;;;;5074603;28;20657;-73
2024/03/30 10:14:39;;;;;;;0.83;0.83;;;27.80;72.00;;;;;;5083754;28;20442;-73
2024/03/30 10:17:07;;;;;;;1.13;1.03;;;27.70;72.60;;;;;;5083936;28;20454;-75
2024/03/30 10:19:33;;;;;;;0.67;0.67;;;27.60;71.60;;;;;;5083871;28;20921;-75
2024/03/30 10:21:59;;;;;;;0.30;0.30;;;27.50;71.30;;;;;;5082951;28;20724;-74
2024/03/30 10:24:29;;;;;;;0.30;0.20;;;27.50;71.50;;;;;;5082222;28;20288;-75
2024/03/30 10:26:55;;;;;;;0.30;0.20;;;27.40;72.80;;;;;;5082225;28;20493;-73
2024/03/30 10:29:21;;;;;;;0.30;0.20;;;27.40;71.90;;;;;;5083107;28;20844;-73
2024/03/30 10:31:47;;;;;;;20.17;0.80;;;27.40;70.90;;;;;;5080115;28;20230;-74
2024/03/30 10:34:13;;;;;;;0.70;0.70;;;27.40;71.30;;;;;;5084006;28;20294;-75
2024/03/30 10:36:40;;;;;;;0.30;0.30;;;27.20;71.10;;;;;;5086872;28;20463;-74
2024/03/30 10:39:05;;;;;;;0.50;0.30;;;27.20;71.60;;;;;;5086616;28;20433;-73
2024/03/30 10:41:31;;;;;;;2.70;1.57;;;27.20;72.00;;;;;;5086361;28;20410;-75
2024/03/30 10:43:57;;;;;;;0.40;0.30;;;27.10;72.40;;;;;;5086101;28;20712;-75
2024/03/30 10:46:27;;;;;;;0.30;0.20;;;27.10;71.60;;;;;;5087494;28;20609;-75
2024/03/30 10:48:53;;;;;;;0.30;0.20;;;27.10;72.40;;;;;;5087451;28;20206;-75
2024/03/30 10:51:20;;;;;;;0.67;0.67;;;27.20;73.20;;;;;;5086382;28;20413;-73
2024/03/30 10:53:48;;;;;;;0.30;0.30;;;27.30;72.90;;;;;;5087624;28;20450;-73
2024/03/30 10:56:14;;;;;;;0.57;0.57;;;27.20;71.20;;;;;;5087794;28;20584;-73
2024/03/30 10:58:40;;;;;;;0.30;0.20;;;27.10;70.50;;;;;;5087624;28;20438;-75
2024/03/30 11:01:08;;;;;;;0.30;0.30;;;27.00;70.80;;;;;;5087748;28;20495;-74
2024/03/30 11:03:34;;;;;;;0.30;0.20;;;27.00;71.80;;;;;;5088817;28;20430;-73
2024/03/30 11:06:01;;;;;;;0.30;0.23;;;27.00;72.10;;;;;;5087791;28;20816;-73
2024/03/30 11:08:28;;;;;;;0.30;0.20;;;27.10;72.30;;;;;;5088697;28;21025;-74
2024/03/30 11:10:54;;;;;;;0.30;0.20;;;27.10;72.70;;;;;;5087740;28;21001;-74
2024/03/30 11:13:20;;;;;;;0.30;0.20;;;27.20;73.00;;;;;;5088703;28;20663;-74
2024/03/30 11:15:48;;;;;;;0.40;0.40;;;27.30;73.50;;;;;;5089329;28;21094;-75
2024/03/30 11:18:39;;;;;;;0.33;0.33;;;27.40;74.00;;;;;;5087542;28;20489;-73
2024/03/30 11:21:20;;;;;;;0.30;0.20;;;27.50;73.50;;;;;;5088368;28;20428;-75
2024/03/30 11:23:57;;;;;;;1.47;1.40;;;27.60;72.20;;;;;;5087552;28;20865;-73
2024/03/30 11:26:24;;;;;;;0.30;0.20;;;27.70;72.90;;;;;;5088723;28;20396;-73
2024/03/30 11:29:01;;;;;;;0.30;0.20;;;27.80;72.20;;;;;;5088272;28;20444;-75
2024/03/30 11:31:35;;;;;;;0.93;0.83;;;27.80;72.10;;;;;;5088446;28;20925;-73
2024/03/30 11:34:08;;;;;;;1.83;1.70;;;27.70;70.80;;;;;;5087949;28;20610;-73
2024/03/30 11:36:39;;;;;;;0.40;0.30;;;27.70;70.80;;;;;;5086840;28;20474;-73
2024/03/30 11:39:27;;;;;;;0.40;0.40;;;27.50;70.70;;;;;;5088603;28;20435;-74
2024/03/30 11:42:07;;;;;;;1.50;0.67;;;27.50;70.70;;;;;;5086585;28;20428;-73
2024/03/30 11:44:34;;;;;;;0.93;0.93;;;27.60;70.30;;;;;;5088663;28;20534;-73
2024/03/30 11:47:00;;;;;;;0.60;0.60;;;27.50;70.70;;;;;;5087041;28;20591;-74
2024/03/30 11:49:26;;;;;;;0.30;0.30;;;27.60;72.30;;;;;;5088064;28;20448;-73
2024/03/30 11:51:52;;;;;;;0.90;0.70;;;27.70;72.80;;;;;;5086353;28;20473;-75
2024/03/30 11:54:22;;;;;;;10.50;1.47;;;27.70;73.20;;;;;;5088725;28;20436;-74
2024/03/30 11:57:14;;;;;;;0.50;0.50;;;27.60;72.70;;;;;;5087830;28;20280;-74
2024/03/30 11:59:41;;;;;;;1.10;1.00;;;27.70;72.80;;;;;;5083119;28;20453;-75
2024/03/30 12:02:11;;;;;;;1.13;0.70;;;27.80;73.10;;;;;;5086630;28;20499;-73
2024/03/30 12:04:41;;;;;;;0.30;0.20;;;27.80;72.30;;;;;;5087061;28;20416;-74
2024/03/30 12:07:08;;;;;;;0.30;0.20;;;27.90;72.20;;;;;;5086576;28;20423;-74
2024/03/30 12:09:34;;;;;;;0.30;0.20;;;27.80;72.80;;;;;;5085477;28;20499;-73
2024/03/30 12:12:25;;;;;;;0.30;0.20;;;27.70;72.60;;;;;;5087377;28;20775;-73
2024/03/30 12:14:53;;;;;;;0.30;0.30;;;27.70;72.10;;;;;;5087887;28;20920;-75
2024/03/30 12:17:18;;;;;;;0.40;0.23;;;27.70;72.40;;;;;;5087307;28;20608;-75
2024/03/30 12:19:46;;;;;;;0.30;0.20;;;27.80;71.50;;;;;;5086582;28;20521;-73
2024/03/30 12:22:12;;;;;;;5.30;2.03;;;27.90;71.70;;;;;;5087259;28;20988;-75
2024/03/30 12:24:38;;;;;;;0.30;0.20;;;27.90;72.10;;;;;;5086377;28;20584;-73
2024/03/30 12:27:04;;;;;;;0.50;0.40;;;28.00;71.70;;;;;;5087134;28;20400;-74
2024/03/30 12:29:29;;;;;;;0.50;0.40;;;28.00;71.20;;;;;;5087662;28;20424;-74
2024/03/30 12:31:55;;;;;;;0.40;0.40;;;27.90;71.20;;;;;;5085790;28;20423;-75
2024/03/30 12:34:21;;;;;;;2.27;2.13;;;27.90;71.80;;;;;;5086015;28;20199;-75
2024/03/30 12:36:47;;;;;;;0.30;0.20;;;27.80;71.70;;;;;;5084912;28;20660;-74
2024/03/30 12:39:14;;;;;;;0.30;0.20;;;27.80;71.40;;;;;;5085617;28;20467;-75
2024/03/30 12:41:40;;;;;;;0.40;0.40;;;27.80;72.10;;;;;;5085419;28;20413;-73
2024/03/30 12:44:08;;;;;;;0.40;0.37;;;27.80;72.60;;;;;;5085756;28;20543;-75
2024/03/30 12:46:37;;;;;;;0.30;0.20;;;27.70;72.00;;;;;;5087190;28;20176;-74